sensor_id;sensor_type;location;lat;lon;timestamp;P1;durP1;ratioP1;P2;durP2;ratioP2
595;SDS011;19946;49.306;11.350;2023-01-25T00:02:20;15.37;;;15.07;;
595;SDS011;19946;49.306;11.350;2023-01-25T00:05:21;15.60;;;15.30;;
595;SDS011;19946;49.306;11.350;2023-01-25T00:08:21;13.70;;;13.40;;
595;SDS011;19946;49.306;11.350;2023-01-25T00:11:21;21.13;;;20.63;;
595;SDS011;19946;49.306;11.350;2023-01-25T00:14:22;23.03;;;22.43;;
595;SDS011;19946;49.306;11.350;2023-01-25T00:17:22;25.50;;;24.80;;
595;SDS011;19946;49.306;11.350;2023-01-25T00:20:23;17.17;;;16.77;;
595;SDS011;19946;49.306;11.350;2023-01-25T00:23:23;13.90;;;13.60;;
595;SDS011;19946;49.306;11.350;2023-01-25T00:26:23;19.77;;;19.27;;
595;SDS011;19946;49.306;11.350;2023-01-25T00:29:24;18.30;;;17.90;;
595;SDS011;19946;49.306;11.350;2023-01-25T00:32:31;14.70;;;14.40;;
595;SDS011;19946;49.306;11.350;2023-01-25T00:35:47;16.77;;;16.37;;
595;SDS011;19946;49.306;11.350;2023-01-25T00:38:48;15.03;;;14.73;;
595;SDS011;19946;49.306;11.350;2023-01-25T00:41:52;15.60;;;15.30;;
595;SDS011;19946;49.306;11.350;2023-01-25T00:44:53;15.57;;;15.27;;
595;SDS011;19946;49.306;11.350;2023-01-25T00:47:54;16.23;;;15.83;;
595;SDS011;19946;49.306;11.350;2023-01-25T00:50:59;14.37;;;14.07;;
595;SDS011;19946;49.306;11.350;2023-01-25T00:54:00;14.17;;;13.87;;
595;SDS011;19946;49.306;11.350;2023-01-25T00:57:00;14.03;;;13.73;;
595;SDS011;19946;49.306;11.350;2023-01-25T01:00:01;12.33;;;12.13;;
595;SDS011;19946;49.306;11.350;2023-01-25T01:03:01;15.53;;;15.23;;
595;SDS011;19946;49.306;11.350;2023-01-25T01:06:03;14.50;;;14.20;;
595;SDS011;19946;49.306;11.350;2023-01-25T01:09:12;13.33;;;13.03;;
595;SDS011;19946;49.306;11.350;2023-01-25T01:12:14;12.43;;;12.23;;
595;SDS011;19946;49.306;11.350;2023-01-25T01:15:15;10.40;;;10.20;;
595;SDS011;19946;49.306;11.350;2023-01-25T01:18:16;13.57;;;13.27;;
595;SDS011;19946;49.306;11.350;2023-01-25T01:21:16;14.83;;;14.53;;
595;SDS011;19946;49.306;11.350;2023-01-25T01:24:16;16.20;;;15.83;;
595;SDS011;19946;49.306;11.350;2023-01-25T01:27:17;15.40;;;15.10;;
595;SDS011;19946;49.306;11.350;2023-01-25T01:30:17;15.13;;;14.83;;
595;SDS011;19946;49.306;11.350;2023-01-25T01:33:17;10.73;;;10.53;;
595;SDS011;19946;49.306;11.350;2023-01-25T01:36:19;11.93;;;11.73;;
595;SDS011;19946;49.306;11.350;2023-01-25T01:39:21;12.60;;;12.40;;
595;SDS011;19946;49.306;11.350;2023-01-25T01:42:21;8.77;;;8.67;;
595;SDS011;19946;49.306;11.350;2023-01-25T01:49:10;15.00;;;14.70;;
595;SDS011;19946;49.306;11.350;2023-01-25T01:52:29;13.20;;;12.90;;
595;SDS011;19946;49.306;11.350;2023-01-25T01:55:31;17.63;;;17.23;;
595;SDS011;19946;49.306;11.350;2023-01-25T01:58:31;16.60;;;16.20;;
595;SDS011;19946;49.306;11.350;2023-01-25T02:01:33;11.90;;;11.70;;
595;SDS011;19946;49.306;11.350;2023-01-25T02:04:33;11.60;;;11.40;;
595;SDS011;19946;49.306;11.350;2023-01-25T02:07:37;11.30;;;11.10;;
595;SDS011;19946;49.306;11.350;2023-01-25T02:10:38;9.20;;;9.10;;
595;SDS011;19946;49.306;11.350;2023-01-25T02:13:39;12.17;;;11.97;;
595;SDS011;19946;49.306;11.350;2023-01-25T02:16:40;16.43;;;16.03;;
595;SDS011;19946;49.306;11.350;2023-01-25T02:19:46;15.60;;;15.30;;
595;SDS011;19946;49.306;11.350;2023-01-25T02:23:01;14.60;;;14.30;;
595;SDS011;19946;49.306;11.350;2023-01-25T02:26:07;13.90;;;13.60;;
595;SDS011;19946;49.306;11.350;2023-01-25T02:29:08;15.23;;;14.93;;
595;SDS011;19946;49.306;11.350;2023-01-25T02:32:09;15.17;;;14.87;;
595;SDS011;19946;49.306;11.350;2023-01-25T02:35:16;14.83;;;14.53;;
595;SDS011;19946;49.306;11.350;2023-01-25T02:38:19;15.10;;;14.80;;
595;SDS011;19946;49.306;11.350;2023-01-25T02:41:29;18.07;;;17.67;;
595;SDS011;19946;49.306;11.350;2023-01-25T02:44:36;19.60;;;19.10;;
595;SDS011;19946;49.306;11.350;2023-01-25T02:47:37;19.10;;;18.67;;
595;SDS011;19946;49.306;11.350;2023-01-25T02:50:38;19.77;;;19.27;;
595;SDS011;19946;49.306;11.350;2023-01-25T02:53:38;16.87;;;16.47;;
595;SDS011;19946;49.306;11.350;2023-01-25T02:56:39;19.70;;;19.20;;
595;SDS011;19946;49.306;11.350;2023-01-25T02:59:40;16.40;;;16.00;;
595;SDS011;19946;49.306;11.350;2023-01-25T03:02:40;19.43;;;18.93;;
595;SDS011;19946;49.306;11.350;2023-01-25T03:05:42;21.67;;;21.17;;
595;SDS011;19946;49.306;11.350;2023-01-25T03:08:43;21.80;;;21.30;;
595;SDS011;19946;49.306;11.350;2023-01-25T03:11:43;18.80;;;18.40;;
595;SDS011;19946;49.306;11.350;2023-01-25T03:14:44;18.17;;;17.77;;
595;SDS011;19946;49.306;11.350;2023-01-25T03:17:44;19.07;;;18.63;;
595;SDS011;19946;49.306;11.350;2023-01-25T03:20:44;18.20;;;17.80;;
595;SDS011;19946;49.306;11.350;2023-01-25T03:23:45;17.90;;;17.50;;
595;SDS011;19946;49.306;11.350;2023-01-25T03:26:51;14.17;;;13.87;;
595;SDS011;19946;49.306;11.350;2023-01-25T03:30:20;15.63;;;15.33;;
595;SDS011;19946;49.306;11.350;2023-01-25T03:33:20;11.63;;;11.43;;
595;SDS011;19946;49.306;11.350;2023-01-25T03:36:20;11.27;;;11.07;;
595;SDS011;19946;49.306;11.350;2023-01-25T03:39:21;15.60;;;15.30;;
595;SDS011;19946;49.306;11.350;2023-01-25T03:42:21;15.00;;;14.70;;
595;SDS011;19946;49.306;11.350;2023-01-25T03:45:27;12.70;;;12.50;;
595;SDS011;19946;49.306;11.350;2023-01-25T03:48:28;19.40;;;18.93;;
595;SDS011;19946;49.306;11.350;2023-01-25T03:51:29;18.90;;;18.50;;
595;SDS011;19946;49.306;11.350;2023-01-25T03:54:30;17.97;;;17.57;;
595;SDS011;19946;49.306;11.350;2023-01-25T03:57:31;17.70;;;17.30;;
595;SDS011;19946;49.306;11.350;2023-01-25T04:00:35;17.90;;;17.50;;
595;SDS011;19946;49.306;11.350;2023-01-25T04:03:36;18.77;;;18.37;;
595;SDS011;19946;49.306;11.350;2023-01-25T04:06:38;21.63;;;21.13;;
595;SDS011;19946;49.306;11.350;2023-01-25T04:09:38;19.97;;;19.47;;
595;SDS011;19946;49.306;11.350;2023-01-25T04:12:40;19.13;;;18.70;;
595;SDS011;19946;49.306;11.350;2023-01-25T04:15:41;18.43;;;18.03;;
595;SDS011;19946;49.306;11.350;2023-01-25T04:18:50;16.30;;;15.90;;
595;SDS011;19946;49.306;11.350;2023-01-25T04:21:50;14.57;;;14.27;;
595;SDS011;19946;49.306;11.350;2023-01-25T04:24:51;15.20;;;14.90;;
595;SDS011;19946;49.306;11.350;2023-01-25T04:27:52;13.80;;;13.50;;
595;SDS011;19946;49.306;11.350;2023-01-25T04:30:54;11.90;;;11.70;;
595;SDS011;19946;49.306;11.350;2023-01-25T04:33:56;15.43;;;15.13;;
595;SDS011;19946;49.306;11.350;2023-01-25T04:36:56;16.13;;;15.77;;
595;SDS011;19946;49.306;11.350;2023-01-25T04:40:00;13.37;;;13.07;;
595;SDS011;19946;49.306;11.350;2023-01-25T04:43:04;14.40;;;14.10;;
595;SDS011;19946;49.306;11.350;2023-01-25T04:46:07;12.30;;;12.10;;
595;SDS011;19946;49.306;11.350;2023-01-25T04:49:08;13.20;;;12.90;;
595;SDS011;19946;49.306;11.350;2023-01-25T04:52:08;15.90;;;15.60;;
595;SDS011;19946;49.306;11.350;2023-01-25T04:55:09;15.60;;;15.30;;
595;SDS011;19946;49.306;11.350;2023-01-25T04:58:14;18.03;;;17.63;;
595;SDS011;19946;49.306;11.350;2023-01-25T05:01:16;13.57;;;13.27;;
595;SDS011;19946;49.306;11.350;2023-01-25T05:04:16;15.10;;;14.80;;
595;SDS011;19946;49.306;11.350;2023-01-25T05:07:19;21.20;;;20.70;;
595;SDS011;19946;49.306;11.350;2023-01-25T05:10:20;18.67;;;18.27;;
595;SDS011;19946;49.306;11.350;2023-01-25T05:13:56;16.13;;;15.77;;
595;SDS011;19946;49.306;11.350;2023-01-25T05:17:01;18.30;;;17.90;;
595;SDS011;19946;49.306;11.350;2023-01-25T05:20:02;17.10;;;16.70;;
595;SDS011;19946;49.306;11.350;2023-01-25T05:23:03;18.50;;;18.10;;
595;SDS011;19946;49.306;11.350;2023-01-25T05:26:04;14.40;;;14.10;;
595;SDS011;19946;49.306;11.350;2023-01-25T05:29:24;9.63;;;9.47;;
595;SDS011;19946;49.306;11.350;2023-01-25T05:32:30;17.07;;;16.67;;
595;SDS011;19946;49.306;11.350;2023-01-25T05:35:31;12.73;;;12.53;;
595;SDS011;19946;49.306;11.350;2023-01-25T05:38:32;13.00;;;12.70;;
595;SDS011;19946;49.306;11.350;2023-01-25T05:41:32;20.07;;;19.57;;
595;SDS011;19946;49.306;11.350;2023-01-25T05:44:33;18.30;;;17.90;;
595;SDS011;19946;49.306;11.350;2023-01-25T05:47:33;14.50;;;14.20;;
595;SDS011;19946;49.306;11.350;2023-01-25T05:50:33;14.53;;;14.23;;
595;SDS011;19946;49.306;11.350;2023-01-25T05:53:40;14.60;;;14.30;;
595;SDS011;19946;49.306;11.350;2023-01-25T05:56:41;13.37;;;13.07;;
595;SDS011;19946;49.306;11.350;2023-01-25T05:59:43;14.30;;;14.00;;
595;SDS011;19946;49.306;11.350;2023-01-25T06:02:46;14.60;;;14.30;;
595;SDS011;19946;49.306;11.350;2023-01-25T06:05:54;13.60;;;13.30;;
595;SDS011;19946;49.306;11.350;2023-01-25T06:08:56;11.97;;;11.77;;
595;SDS011;19946;49.306;11.350;2023-01-25T06:11:56;7.30;;;7.20;;
595;SDS011;19946;49.306;11.350;2023-01-25T06:14:56;11.93;;;11.73;;
595;SDS011;19946;49.306;11.350;2023-01-25T06:17:57;12.23;;;12.03;;
595;SDS011;19946;49.306;11.350;2023-01-25T06:21:05;13.43;;;13.13;;
595;SDS011;19946;49.306;11.350;2023-01-25T06:24:09;10.20;;;10.00;;
595;SDS011;19946;49.306;11.350;2023-01-25T06:27:10;12.27;;;12.07;;
595;SDS011;19946;49.306;11.350;2023-01-25T06:30:11;20.50;;;20.00;;
595;SDS011;19946;49.306;11.350;2023-01-25T06:33:12;17.60;;;17.20;;
595;SDS011;19946;49.306;11.350;2023-01-25T06:36:13;14.00;;;13.70;;
595;SDS011;19946;49.306;11.350;2023-01-25T06:39:14;12.63;;;12.43;;
595;SDS011;19946;49.306;11.350;2023-01-25T06:42:15;14.50;;;14.20;;
595;SDS011;19946;49.306;11.350;2023-01-25T06:45:15;12.70;;;12.50;;
595;SDS011;19946;49.306;11.350;2023-01-25T06:48:16;14.40;;;14.10;;
595;SDS011;19946;49.306;11.350;2023-01-25T06:51:16;10.63;;;10.43;;
595;SDS011;19946;49.306;11.350;2023-01-25T06:54:17;14.30;;;14.00;;
595;SDS011;19946;49.306;11.350;2023-01-25T06:57:17;14.47;;;14.17;;
595;SDS011;19946;49.306;11.350;2023-01-25T07:00:17;13.73;;;13.43;;
595;SDS011;19946;49.306;11.350;2023-01-25T07:03:18;13.70;;;13.40;;
595;SDS011;19946;49.306;11.350;2023-01-25T07:06:18;13.40;;;13.10;;
595;SDS011;19946;49.306;11.350;2023-01-25T07:09:19;12.37;;;12.17;;
595;SDS011;19946;49.306;11.350;2023-01-25T07:12:23;13.20;;;12.90;;
595;SDS011;19946;49.306;11.350;2023-01-25T07:15:24;14.73;;;14.43;;
595;SDS011;19946;49.306;11.350;2023-01-25T07:18:25;21.07;;;20.57;;
595;SDS011;19946;49.306;11.350;2023-01-25T07:21:26;16.50;;;16.10;;
595;SDS011;19946;49.306;11.350;2023-01-25T07:24:26;15.00;;;14.70;;
595;SDS011;19946;49.306;11.350;2023-01-25T07:27:31;13.83;;;13.53;;
595;SDS011;19946;49.306;11.350;2023-01-25T07:30:32;15.00;;;14.70;;
595;SDS011;19946;49.306;11.350;2023-01-25T07:33:33;16.50;;;16.10;;
595;SDS011;19946;49.306;11.350;2023-01-25T07:36:34;16.20;;;15.80;;
595;SDS011;19946;49.306;11.350;2023-01-25T07:39:34;16.63;;;16.23;;
595;SDS011;19946;49.306;11.350;2023-01-25T07:42:35;18.97;;;18.57;;
595;SDS011;19946;49.306;11.350;2023-01-25T07:45:45;20.27;;;19.77;;
595;SDS011;19946;49.306;11.350;2023-01-25T07:48:48;18.40;;;18.00;;
595;SDS011;19946;49.306;11.350;2023-01-25T07:51:51;21.80;;;21.30;;
595;SDS011;19946;49.306;11.350;2023-01-25T07:54:51;17.87;;;17.47;;
595;SDS011;19946;49.306;11.350;2023-01-25T07:57:54;20.80;;;20.30;;
595;SDS011;19946;49.306;11.350;2023-01-25T08:00:54;16.27;;;15.87;;
595;SDS011;19946;49.306;11.350;2023-01-25T08:03:55;15.70;;;15.40;;
595;SDS011;19946;49.306;11.350;2023-01-25T08:06:56;17.20;;;16.80;;
595;SDS011;19946;49.306;11.350;2023-01-25T08:09:56;19.97;;;19.47;;
595;SDS011;19946;49.306;11.350;2023-01-25T08:12:57;13.67;;;13.37;;
595;SDS011;19946;49.306;11.350;2023-01-25T08:15:57;12.00;;;11.80;;
595;SDS011;19946;49.306;11.350;2023-01-25T08:18:58;12.10;;;11.90;;
595;SDS011;19946;49.306;11.350;2023-01-25T08:22:00;11.97;;;11.77;;
595;SDS011;19946;49.306;11.350;2023-01-25T08:25:01;11.30;;;11.10;;
595;SDS011;19946;49.306;11.350;2023-01-25T08:28:03;13.70;;;13.40;;
595;SDS011;19946;49.306;11.350;2023-01-25T08:31:14;13.87;;;13.57;;
595;SDS011;19946;49.306;11.350;2023-01-25T08:34:17;13.60;;;13.30;;
595;SDS011;19946;49.306;11.350;2023-01-25T08:37:18;11.23;;;11.03;;
595;SDS011;19946;49.306;11.350;2023-01-25T08:40:18;10.73;;;10.53;;
595;SDS011;19946;49.306;11.350;2023-01-25T08:43:18;13.47;;;13.17;;
595;SDS011;19946;49.306;11.350;2023-01-25T08:46:18;11.07;;;10.87;;
595;SDS011;19946;49.306;11.350;2023-01-25T08:49:20;11.43;;;11.23;;
595;SDS011;19946;49.306;11.350;2023-01-25T08:52:20;19.70;;;19.20;;
595;SDS011;19946;49.306;11.350;2023-01-25T08:55:21;16.90;;;16.50;;
595;SDS011;19946;49.306;11.350;2023-01-25T08:58:21;11.10;;;10.90;;
595;SDS011;19946;49.306;11.350;2023-01-25T09:01:21;12.07;;;11.87;;
595;SDS011;19946;49.306;11.350;2023-01-25T09:04:22;13.90;;;13.60;;
595;SDS011;19946;49.306;11.350;2023-01-25T09:07:27;12.47;;;12.27;;
595;SDS011;19946;49.306;11.350;2023-01-25T09:10:27;14.30;;;14.00;;
595;SDS011;19946;49.306;11.350;2023-01-25T09:13:28;13.10;;;12.80;;
595;SDS011;19946;49.306;11.350;2023-01-25T09:16:28;13.07;;;12.77;;
595;SDS011;19946;49.306;11.350;2023-01-25T09:19:29;12.00;;;11.80;;
595;SDS011;19946;49.306;11.350;2023-01-25T09:22:30;12.43;;;12.23;;
595;SDS011;19946;49.306;11.350;2023-01-25T09:25:30;9.70;;;9.50;;
595;SDS011;19946;49.306;11.350;2023-01-25T09:28:31;9.30;;;9.20;;
595;SDS011;19946;49.306;11.350;2023-01-25T09:31:32;9.47;;;9.37;;
595;SDS011;19946;49.306;11.350;2023-01-25T09:34:41;11.07;;;10.87;;
595;SDS011;19946;49.306;11.350;2023-01-25T09:37:41;10.67;;;10.47;;
595;SDS011;19946;49.306;11.350;2023-01-25T09:40:44;13.40;;;13.10;;
595;SDS011;19946;49.306;11.350;2023-01-25T09:43:57;11.70;;;11.50;;
595;SDS011;19946;49.306;11.350;2023-01-25T09:54:12;13.13;;;12.83;;
595;SDS011;19946;49.306;11.350;2023-01-25T09:57:17;11.77;;;11.57;;
595;SDS011;19946;49.306;11.350;2023-01-25T10:00:29;11.30;;;11.10;;
595;SDS011;19946;49.306;11.350;2023-01-25T10:04:09;12.40;;;12.20;;
595;SDS011;19946;49.306;11.350;2023-01-25T10:07:40;15.67;;;15.37;;
595;SDS011;19946;49.306;11.350;2023-01-25T10:11:01;11.03;;;10.83;;
595;SDS011;19946;49.306;11.350;2023-01-25T10:14:12;11.83;;;11.63;;
595;SDS011;19946;49.306;11.350;2023-01-25T10:20:58;14.43;;;14.13;;
595;SDS011;19946;49.306;11.350;2023-01-25T10:24:06;11.90;;;11.70;;
595;SDS011;19946;49.306;11.350;2023-01-25T10:27:25;12.60;;;12.40;;
595;SDS011;19946;49.306;11.350;2023-01-25T10:30:40;11.03;;;10.83;;
595;SDS011;19946;49.306;11.350;2023-01-25T10:34:01;15.07;;;14.77;;
595;SDS011;19946;49.306;11.350;2023-01-25T10:37:18;12.40;;;12.20;;
595;SDS011;19946;49.306;11.350;2023-01-25T10:40:33;11.50;;;11.30;;
595;SDS011;19946;49.306;11.350;2023-01-25T10:43:39;11.77;;;11.57;;
595;SDS011;19946;49.306;11.350;2023-01-25T10:46:41;15.40;;;15.10;;
595;SDS011;19946;49.306;11.350;2023-01-25T10:49:49;12.60;;;12.40;;
595;SDS011;19946;49.306;11.350;2023-01-25T10:52:57;11.10;;;10.90;;
595;SDS011;19946;49.306;11.350;2023-01-25T10:55:59;12.87;;;12.57;;
595;SDS011;19946;49.306;11.350;2023-01-25T10:59:07;10.90;;;10.70;;
595;SDS011;19946;49.306;11.350;2023-01-25T11:05:37;10.33;;;10.13;;
595;SDS011;19946;49.306;11.350;2023-01-25T11:08:41;10.60;;;10.40;;
595;SDS011;19946;49.306;11.350;2023-01-25T11:11:42;10.87;;;10.67;;
595;SDS011;19946;49.306;11.350;2023-01-25T11:14:42;10.47;;;10.27;;
595;SDS011;19946;49.306;11.350;2023-01-25T11:17:43;8.90;;;8.80;;
595;SDS011;19946;49.306;11.350;2023-01-25T11:20:44;10.50;;;10.30;;
595;SDS011;19946;49.306;11.350;2023-01-25T11:23:57;10.40;;;10.20;;
595;SDS011;19946;49.306;11.350;2023-01-25T11:27:16;9.90;;;9.70;;
595;SDS011;19946;49.306;11.350;2023-01-25T11:30:21;15.00;;;14.70;;
595;SDS011;19946;49.306;11.350;2023-01-25T11:33:24;18.70;;;18.30;;
595;SDS011;19946;49.306;11.350;2023-01-25T11:39:47;11.70;;;11.40;;
595;SDS011;19946;49.306;11.350;2023-01-25T11:49:44;13.80;;;13.50;;
595;SDS011;19946;49.306;11.350;2023-01-25T12:16:23;14.10;;;13.80;;
595;SDS011;19946;49.306;11.350;2023-01-25T12:19:46;10.73;;;10.53;;
595;SDS011;19946;49.306;11.350;2023-01-25T12:26:27;9.80;;;9.60;;
595;SDS011;19946;49.306;11.350;2023-01-25T12:29:38;9.93;;;9.73;;
595;SDS011;19946;49.306;11.350;2023-01-25T12:32:46;11.13;;;10.93;;
595;SDS011;19946;49.306;11.350;2023-01-25T12:35:56;18.90;;;18.40;;
595;SDS011;19946;49.306;11.350;2023-01-25T12:39:33;14.03;;;13.73;;
595;SDS011;19946;49.306;11.350;2023-01-25T12:42:41;12.00;;;11.80;;
595;SDS011;19946;49.306;11.350;2023-01-25T12:45:46;11.33;;;11.13;;
595;SDS011;19946;49.306;11.350;2023-01-25T12:48:49;11.87;;;11.67;;
595;SDS011;19946;49.306;11.350;2023-01-25T12:51:55;10.57;;;10.37;;
595;SDS011;19946;49.306;11.350;2023-01-25T12:55:01;12.40;;;12.20;;
595;SDS011;19946;49.306;11.350;2023-01-25T13:11:24;12.17;;;11.97;;
595;SDS011;19946;49.306;11.350;2023-01-25T13:14:27;14.57;;;14.27;;
595;SDS011;19946;49.306;11.350;2023-01-25T13:17:30;13.50;;;13.20;;
595;SDS011;19946;49.306;11.350;2023-01-25T13:23:41;10.37;;;10.17;;
595;SDS011;19946;49.306;11.350;2023-01-25T13:29:55;16.53;;;16.13;;
595;SDS011;19946;49.306;11.350;2023-01-25T13:33:01;13.90;;;13.60;;
595;SDS011;19946;49.306;11.350;2023-01-25T13:36:35;16.73;;;16.33;;
595;SDS011;19946;49.306;11.350;2023-01-25T13:39:40;12.23;;;12.03;;
595;SDS011;19946;49.306;11.350;2023-01-25T13:42:43;13.53;;;13.23;;
595;SDS011;19946;49.306;11.350;2023-01-25T13:45:58;12.67;;;12.47;;
595;SDS011;19946;49.306;11.350;2023-01-25T13:49:00;15.30;;;15.00;;
595;SDS011;19946;49.306;11.350;2023-01-25T13:52:04;11.90;;;11.70;;
595;SDS011;19946;49.306;11.350;2023-01-25T13:55:15;12.23;;;12.03;;
595;SDS011;19946;49.306;11.350;2023-01-25T14:01:22;9.03;;;8.93;;
595;SDS011;19946;49.306;11.350;2023-01-25T14:04:22;13.43;;;13.13;;
595;SDS011;19946;49.306;11.350;2023-01-25T14:07:30;22.50;;;21.90;;
595;SDS011;19946;49.306;11.350;2023-01-25T14:10:33;23.60;;;23.00;;
595;SDS011;19946;49.306;11.350;2023-01-25T14:13:33;19.43;;;18.93;;
595;SDS011;19946;49.306;11.350;2023-01-25T14:16:34;12.97;;;12.67;;
595;SDS011;19946;49.306;11.350;2023-01-25T14:19:35;16.60;;;16.20;;
595;SDS011;19946;49.306;11.350;2023-01-25T14:22:36;18.40;;;18.00;;
595;SDS011;19946;49.306;11.350;2023-01-25T14:25:38;19.93;;;19.43;;
595;SDS011;19946;49.306;11.350;2023-01-25T14:28:42;18.17;;;17.77;;
595;SDS011;19946;49.306;11.350;2023-01-25T14:31:45;21.60;;;21.10;;
595;SDS011;19946;49.306;11.350;2023-01-25T14:34:48;14.53;;;14.23;;
595;SDS011;19946;49.306;11.350;2023-01-25T14:37:48;12.10;;;11.90;;
595;SDS011;19946;49.306;11.350;2023-01-25T14:40:49;12.80;;;12.60;;
595;SDS011;19946;49.306;11.350;2023-01-25T14:43:53;16.07;;;15.73;;
595;SDS011;19946;49.306;11.350;2023-01-25T14:50:32;17.07;;;16.67;;
595;SDS011;19946;49.306;11.350;2023-01-25T14:53:32;19.60;;;19.10;;
595;SDS011;19946;49.306;11.350;2023-01-25T14:56:39;22.53;;;21.93;;
595;SDS011;19946;49.306;11.350;2023-01-25T14:59:45;19.70;;;19.20;;
595;SDS011;19946;49.306;11.350;2023-01-25T15:02:52;21.27;;;20.77;;
595;SDS011;19946;49.306;11.350;2023-01-25T15:05:56;21.40;;;20.80;;
595;SDS011;19946;49.306;11.350;2023-01-25T15:09:01;20.07;;;19.57;;
595;SDS011;19946;49.306;11.350;2023-01-25T15:12:03;25.97;;;25.27;;
595;SDS011;19946;49.306;11.350;2023-01-25T15:15:16;23.30;;;22.60;;
595;SDS011;19946;49.306;11.350;2023-01-25T15:21:45;23.60;;;23.00;;
595;SDS011;19946;49.306;11.350;2023-01-25T15:24:47;24.17;;;23.57;;
595;SDS011;19946;49.306;11.350;2023-01-25T15:27:47;22.63;;;22.03;;
595;SDS011;19946;49.306;11.350;2023-01-25T15:30:48;21.73;;;21.23;;
595;SDS011;19946;49.306;11.350;2023-01-25T15:33:49;21.33;;;20.83;;
595;SDS011;19946;49.306;11.350;2023-01-25T15:36:50;24.83;;;24.23;;
595;SDS011;19946;49.306;11.350;2023-01-25T15:39:50;25.93;;;25.23;;
595;SDS011;19946;49.306;11.350;2023-01-25T15:42:50;26.37;;;25.67;;
595;SDS011;19946;49.306;11.350;2023-01-25T15:45:51;26.90;;;26.20;;
595;SDS011;19946;49.306;11.350;2023-01-25T15:48:52;28.17;;;27.47;;
595;SDS011;19946;49.306;11.350;2023-01-25T15:51:53;25.07;;;24.37;;
595;SDS011;19946;49.306;11.350;2023-01-25T15:54:54;22.43;;;21.83;;
595;SDS011;19946;49.306;11.350;2023-01-25T15:57:54;19.90;;;19.30;;
595;SDS011;19946;49.306;11.350;2023-01-25T16:00:56;15.40;;;15.10;;
595;SDS011;19946;49.306;11.350;2023-01-25T16:03:57;24.77;;;24.17;;
595;SDS011;19946;49.306;11.350;2023-01-25T16:06:58;22.10;;;21.60;;
595;SDS011;19946;49.306;11.350;2023-01-25T16:10:01;18.70;;;18.30;;
595;SDS011;19946;49.306;11.350;2023-01-25T16:13:01;13.73;;;13.43;;
595;SDS011;19946;49.306;11.350;2023-01-25T16:16:01;18.27;;;17.87;;
595;SDS011;19946;49.306;11.350;2023-01-25T16:19:02;19.20;;;18.80;;
595;SDS011;19946;49.306;11.350;2023-01-25T16:22:03;21.63;;;21.13;;
595;SDS011;19946;49.306;11.350;2023-01-25T16:25:03;13.83;;;13.53;;
595;SDS011;19946;49.306;11.350;2023-01-25T16:28:03;12.57;;;12.37;;
595;SDS011;19946;49.306;11.350;2023-01-25T16:31:04;11.73;;;11.53;;
595;SDS011;19946;49.306;11.350;2023-01-25T16:34:05;16.07;;;15.70;;
595;SDS011;19946;49.306;11.350;2023-01-25T16:37:05;20.57;;;20.07;;
595;SDS011;19946;49.306;11.350;2023-01-25T16:40:10;17.83;;;17.43;;
595;SDS011;19946;49.306;11.350;2023-01-25T16:43:19;17.70;;;17.30;;
595;SDS011;19946;49.306;11.350;2023-01-25T16:46:21;16.80;;;16.40;;
595;SDS011;19946;49.306;11.350;2023-01-25T16:49:23;15.50;;;15.20;;
595;SDS011;19946;49.306;11.350;2023-01-25T16:52:29;19.70;;;19.20;;
595;SDS011;19946;49.306;11.350;2023-01-25T16:55:29;17.40;;;17.00;;
595;SDS011;19946;49.306;11.350;2023-01-25T16:58:30;19.60;;;19.10;;
595;SDS011;19946;49.306;11.350;2023-01-25T17:01:31;19.83;;;19.33;;
595;SDS011;19946;49.306;11.350;2023-01-25T17:04:32;15.83;;;15.53;;
595;SDS011;19946;49.306;11.350;2023-01-25T17:07:32;26.00;;;25.30;;
595;SDS011;19946;49.306;11.350;2023-01-25T17:10:33;18.07;;;17.57;;
595;SDS011;19946;49.306;11.350;2023-01-25T17:13:36;22.60;;;22.00;;
595;SDS011;19946;49.306;11.350;2023-01-25T17:16:36;17.37;;;16.97;;
595;SDS011;19946;49.306;11.350;2023-01-25T17:19:36;20.67;;;20.17;;
595;SDS011;19946;49.306;11.350;2023-01-25T17:22:37;20.03;;;19.53;;
595;SDS011;19946;49.306;11.350;2023-01-25T17:25:37;20.83;;;20.33;;
595;SDS011;19946;49.306;11.350;2023-01-25T17:28:38;20.97;;;20.47;;
595;SDS011;19946;49.306;11.350;2023-01-25T17:31:39;20.93;;;20.40;;
595;SDS011;19946;49.306;11.350;2023-01-25T17:34:40;21.00;;;20.50;;
595;SDS011;19946;49.306;11.350;2023-01-25T17:37:40;21.80;;;21.30;;
595;SDS011;19946;49.306;11.350;2023-01-25T17:40:40;22.37;;;21.80;;
595;SDS011;19946;49.306;11.350;2023-01-25T17:43:41;24.60;;;24.00;;
595;SDS011;19946;49.306;11.350;2023-01-25T17:46:42;23.93;;;23.33;;
595;SDS011;19946;49.306;11.350;2023-01-25T17:49:42;23.50;;;22.90;;
595;SDS011;19946;49.306;11.350;2023-01-25T17:52:42;22.47;;;21.87;;
595;SDS011;19946;49.306;11.350;2023-01-25T17:55:43;20.93;;;20.43;;
595;SDS011;19946;49.306;11.350;2023-01-25T17:58:43;21.17;;;20.67;;
595;SDS011;19946;49.306;11.350;2023-01-25T18:01:44;15.57;;;15.23;;
595;SDS011;19946;49.306;11.350;2023-01-25T18:04:44;11.63;;;11.43;;
595;SDS011;19946;49.306;11.350;2023-01-25T18:07:45;10.70;;;10.50;;
595;SDS011;19946;49.306;11.350;2023-01-25T18:10:45;7.80;;;7.70;;
595;SDS011;19946;49.306;11.350;2023-01-25T18:13:49;8.00;;;7.90;;
595;SDS011;19946;49.306;11.350;2023-01-25T18:16:51;8.60;;;8.50;;
595;SDS011;19946;49.306;11.350;2023-01-25T18:19:52;11.43;;;11.23;;
595;SDS011;19946;49.306;11.350;2023-01-25T18:22:53;11.80;;;11.60;;
595;SDS011;19946;49.306;11.350;2023-01-25T18:25:53;10.90;;;10.70;;
595;SDS011;19946;49.306;11.350;2023-01-25T18:28:56;11.20;;;11.00;;
595;SDS011;19946;49.306;11.350;2023-01-25T18:32:00;14.40;;;14.10;;
595;SDS011;19946;49.306;11.350;2023-01-25T18:35:00;15.20;;;14.90;;
595;SDS011;19946;49.306;11.350;2023-01-25T18:38:01;15.90;;;15.57;;
595;SDS011;19946;49.306;11.350;2023-01-25T18:41:03;14.90;;;14.60;;
595;SDS011;19946;49.306;11.350;2023-01-25T18:44:03;8.20;;;8.10;;
595;SDS011;19946;49.306;11.350;2023-01-25T18:47:04;9.00;;;8.90;;
595;SDS011;19946;49.306;11.350;2023-01-25T18:50:05;9.30;;;9.20;;
595;SDS011;19946;49.306;11.350;2023-01-25T18:53:06;11.30;;;11.10;;
595;SDS011;19946;49.306;11.350;2023-01-25T18:56:15;9.40;;;9.30;;
595;SDS011;19946;49.306;11.350;2023-01-25T18:59:17;10.70;;;10.50;;
595;SDS011;19946;49.306;11.350;2023-01-25T19:02:17;12.73;;;12.53;;
595;SDS011;19946;49.306;11.350;2023-01-25T19:05:18;13.40;;;13.10;;
595;SDS011;19946;49.306;11.350;2023-01-25T19:08:19;14.27;;;13.97;;
595;SDS011;19946;49.306;11.350;2023-01-25T19:11:20;16.00;;;15.70;;
595;SDS011;19946;49.306;11.350;2023-01-25T19:14:21;15.87;;;15.57;;
595;SDS011;19946;49.306;11.350;2023-01-25T19:17:22;16.60;;;16.20;;
595;SDS011;19946;49.306;11.350;2023-01-25T19:20:22;15.83;;;15.53;;
595;SDS011;19946;49.306;11.350;2023-01-25T19:23:23;18.30;;;17.90;;
595;SDS011;19946;49.306;11.350;2023-01-25T19:26:24;19.70;;;19.20;;
595;SDS011;19946;49.306;11.350;2023-01-25T19:29:25;18.00;;;17.60;;
595;SDS011;19946;49.306;11.350;2023-01-25T19:32:25;16.83;;;16.43;;
595;SDS011;19946;49.306;11.350;2023-01-25T19:35:26;4.67;;;4.67;;